マレ の空港の天気 - METARとTAF

マレ国際空港 ( VRMM / MLE ) - モルディブ Hulhule Island, North Male Atoll
飛行場実況気象(Metar)
観測時間08/18 07:00 MVT (08/18 02:00 UTC)
風向・風速西南西 10m/s
視程10km以上
天気現象
全天の4割程度の雲 雲底高度 550m
全天の8割程度の雲 雲底高度 700m
気温28℃
湿度84%
気圧1009hPa
METARVRMM 180200Z 25019KT 9999 SCT018TCU BKN023 28/25 Q1009 TEMPO 5000 -SHRA
過去の天気等 Google飛行場航空写真 Wunderground天気予報

過去48時間のMETAR

飛行場予報(TAF)
発表時間: 8/18 04:00 MVT (8/17 23:00 UTC)
予報対象時間: 18日5時 MVT ~ 19日11時 MVT
風向・風速西 8m/s
視程10km以上
少しの雲 雲底高度 550m
18日5時 MVT ~ 18日11時 MVT に一時的に
視程5,000m
天気現象弱いしゅう雨
少しの積乱雲 雲底高度 550m
TAF VRMM 172300Z 1800/1906 27016KT 9999 FEW018
TEMPO 1800/1806 5000 -SHRA FEW018CB